SWA3461 KLAS-KDEN
Flight info
| Callsign | SWA3461 |
|---|---|
| Flight time | N/A |
| Altitude | 35000 |
| Route | GIDGT3 TUKRR BUMMP SSKII4 |
| Aircraft | B737/M-SDE2E3FGHIRWXY/LB1 |
Departure
| Time | N/A |
|---|---|
| Airport | Harry Reid International Airport (KLAS) |
Arrival
| Time | 2026-05-06 06:37 |
|---|---|
| Airport | Denver International Airport (KDEN) |
| Time | Latitude | Longitude | Altitude | Speed | Heading |
|---|---|---|---|---|---|
| 2026-05-06 06:37 | 39.84899 | -104.66150 | 5395 ft | 6 kts | 330° |
| 2026-05-06 06:37 | 39.84936 | -104.66178 | 5405 ft | 7 kts | 330° |
| 2026-05-06 06:38 | 39.84979 | -104.66211 | 5396 ft | 8 kts | 330° |
| 2026-05-06 06:38 | 39.85037 | -104.66229 | 5400 ft | 11 kts | 359° |
| 2026-05-06 06:38 | 39.85123 | -104.66242 | 5394 ft | 14 kts | 0° |
| 2026-05-06 06:38 | 39.85217 | -104.66241 | 5393 ft | 13 kts | 1° |
| 2026-05-06 06:39 | 39.85310 | -104.66239 | 5392 ft | 15 kts | 0° |
| 2026-05-06 06:39 | 39.85416 | -104.66240 | 5391 ft | 13 kts | 359° |
| 2026-05-06 06:39 | 39.85486 | -104.66241 | 5388 ft | 8 kts | 0° |
| 2026-05-06 06:39 | 39.85542 | -104.66240 | 5389 ft | 9 kts | 0° |
| 2026-05-06 06:40 | 39.85584 | -104.66305 | 5391 ft | 14 kts | 282° |
| 2026-05-06 06:40 | 39.85587 | -104.66465 | 5383 ft | 19 kts | 282° |
| 2026-05-06 06:40 | 39.85701 | -104.66493 | 5377 ft | 18 kts | 9° |
| 2026-05-06 06:40 | 39.85827 | -104.66487 | 5378 ft | 19 kts | 1° |
| 2026-05-06 06:41 | 39.85964 | -104.66485 | 5379 ft | 20 kts | 360° |
| 2026-05-06 06:41 | 39.86111 | -104.66515 | 5374 ft | 20 kts | 340° |
| 2026-05-06 06:41 | 39.86172 | -104.66645 | 5374 ft | 14 kts | 282° |
| 2026-05-06 06:41 | 39.86181 | -104.66729 | 5375 ft | 9 kts | 276° |
| 2026-05-06 06:42 | 39.86204 | -104.66796 | 5373 ft | 8 kts | 351° |
| 2026-05-06 06:42 | 39.86249 | -104.66798 | 5374 ft | 3 kts | 0° |
| 2026-05-06 06:42 | 39.86254 | -104.66798 | 5374 ft | 0 kts | 360° |